Time;durP1;ratioP1;P1;durP2;ratioP2;P2;SDS_P1;SDS_P2;PMS_P1;PMS_P2;Temp;Humidity;BMP_temperature;BMP_pressure;BME280_temperature;BME280_humidity;BME280_pressure;Samples;Min_cycle;Max_cycle;Signal;HPM_P1;HPM_P2
2021/12/02 00:00:09;;;;;;;;;7.00;4.75;;;;;8.44;100.00;100037.19;5018259;28;45297;-77
2021/12/02 00:02:37;;;;;;;;;5.00;4.50;;;;;8.43;100.00;100031.97;5018067;28;46559;-78
2021/12/02 00:05:04;;;;;;;;;5.50;4.25;;;;;8.48;100.00;100039.13;5018202;28;45741;-79
2021/12/02 00:07:29;;;;;;;;;5.00;4.00;;;;;8.54;100.00;100045.31;5018558;28;45273;-78
2021/12/02 00:09:55;;;;;;;;;4.00;4.00;;;;;8.52;100.00;100043.59;5000419;28;45238;-77
2021/12/02 00:12:21;;;;;;;;;10.00;5.00;;;;;8.61;100.00;100048.22;5018064;28;45615;-80
2021/12/02 00:14:48;;;;;;;;;3.25;3.25;;;;;8.59;100.00;100055.00;5018429;28;45355;-77
2021/12/02 00:17:19;;;;;;;;;3.75;3.75;;;;;8.50;100.00;100029.75;5019112;28;45450;-92
2021/12/02 00:22:29;;;;;;;;;6.00;4.50;;;;;8.64;100.00;100062.94;5020738;28;45446;-88
2021/12/02 00:25:01;;;;;;;;;6.75;6.75;;;;;8.65;100.00;100062.13;5027225;28;45152;-76
2021/12/02 00:27:30;;;;;;;;;8.00;8.00;;;;;8.54;100.00;100059.13;5038141;28;45329;-81
2021/12/02 00:29:58;;;;;;;;;7.50;5.00;;;;;8.61;100.00;100058.53;5037662;28;45225;-80
2021/12/02 00:32:30;;;;;;;;;9.50;7.50;;;;;8.60;100.00;100054.19;5022758;28;45501;-84
2021/12/02 00:34:57;;;;;;;;;5.00;5.00;;;;;8.65;100.00;100065.59;5019374;28;45262;-89
2021/12/02 00:37:23;;;;;;;;;5.00;5.00;;;;;8.66;100.00;100064.78;5019548;28;45359;-89
2021/12/02 00:39:52;;;;;;;;;5.25;5.25;;;;;8.62;100.00;100062.03;5020679;28;45417;-82
2021/12/02 00:42:18;;;;;;;;;7.00;6.25;;;;;8.66;100.00;100079.38;5020172;28;45408;-82
2021/12/02 00:44:44;;;;;;;;;10.00;6.50;;;;;8.65;100.00;100069.88;5022856;28;45270;-83
2021/12/02 00:47:10;;;;;;;;;9.00;9.00;;;;;8.66;100.00;100064.78;5022112;28;45186;-85
2021/12/02 00:49:36;;;;;;;;;9.75;8.75;;;;;8.72;100.00;100071.88;5003457;28;45534;-90
2021/12/02 00:52:03;;;;;;;;;7.50;7.50;;;;;8.68;100.00;100067.41;5020877;28;45412;-89
2021/12/02 00:54:30;;;;;;;;;8.25;7.75;;;;;8.70;100.00;100075.19;5021122;28;45345;-84
2021/12/02 00:56:56;;;;;;;;;10.75;6.25;;;;;8.64;100.00;100069.00;5021604;28;45277;-85
2021/12/02 00:59:22;;;;;;;;;9.00;9.00;;;;;8.73;100.00;100093.41;5021411;28;45189;-81
2021/12/02 01:01:51;;;;;;;;;7.00;7.00;;;;;8.61;100.00;100068.00;5019755;28;45398;-80
2021/12/02 01:04:24;;;;;;;;;5.50;5.50;;;;;8.69;100.00;100092.41;5022002;28;45434;-78
2021/12/02 01:06:51;;;;;;;;;7.00;5.75;;;;;8.71;100.00;100090.78;5021445;28;45241;-79
2021/12/02 01:09:17;;;;;;;;;9.25;7.00;;;;;8.71;100.00;100087.28;5023486;28;44786;-78
2021/12/02 01:11:43;;;;;;;;;8.00;7.00;;;;;8.67;100.00;100084.59;5020038;28;45833;-82
2021/12/02 01:14:10;;;;;;;;;6.75;6.75;;;;;8.76;100.00;100107.31;5017351;28;45807;-83
2021/12/02 01:16:36;;;;;;;;;7.75;4.50;;;;;8.75;100.00;100100.38;5017925;28;45425;-83
2021/12/02 01:19:06;;;;;;;;;9.50;7.50;;;;;8.70;100.00;100101.91;5017738;28;45356;-79
2021/12/02 01:21:35;;;;;;;;;7.00;7.00;;;;;8.58;100.00;100085.91;5017633;28;45585;-85
2021/12/02 01:24:04;;;;;;;;;6.00;4.50;;;;;8.61;100.00;100094.66;5018150;28;45900;-79
2021/12/02 01:26:32;;;;;;;;;10.25;7.00;;;;;8.61;100.00;100106.69;5020050;28;45292;-82
2021/12/02 01:28:58;;;;;;;;;7.00;6.50;;;;;8.58;100.00;100112.63;5020221;28;45464;-81
2021/12/02 01:31:30;;;;;;;;;7.25;7.00;;;;;8.54;100.00;100107.25;5019243;28;45492;-90
2021/12/02 01:33:56;;;;;;;;;9.00;5.00;;;;;8.45;100.00;100108.59;5019512;28;45177;-88
2021/12/02 01:36:23;;;;;;;;;8.00;8.00;;;;;8.42;100.00;100105.00;5025556;28;45292;-86
2021/12/02 01:38:49;;;;;;;;;4.00;4.00;;;;;8.45;100.00;100113.75;5027169;28;45481;-87
2021/12/02 01:41:15;;;;;;;;;7.00;3.25;;;;;8.47;100.00;100127.63;5021558;28;45283;-85
2021/12/02 01:43:41;;;;;;;;;9.00;5.75;;;;;8.51;100.00;100128.63;5019989;28;45363;-79
2021/12/02 01:46:07;;;;;;;;;6.75;6.75;;;;;8.44;100.00;100130.03;5001246;28;45438;-77
2021/12/02 01:48:38;;;;;;;;;6.50;5.00;;;;;8.33;100.00;100113.22;5015501;28;45545;-78
2021/12/02 01:51:07;;;;;;;;;5.25;5.25;;;;;8.50;100.00;100145.84;4982607;28;47505;-80
2021/12/02 01:53:36;;;;;;;;;8.75;7.00;;;;;8.49;100.00;100141.50;5016701;28;45304;-79
2021/12/02 01:56:13;;;;;;;;;5.50;4.50;;;;;8.43;100.00;100123.13;5016661;28;45479;-79
2021/12/02 01:58:48;;;;;;;;;8.75;7.25;;;;;8.46;100.00;100137.88;5016715;28;45386;-78
2021/12/02 02:01:22;;;;;;;;;7.50;5.00;;;;;8.48;100.00;100147.47;5016452;28;45412;-76
2021/12/02 02:03:49;;;;;;;;;8.50;7.00;;;;;8.50;100.00;100160.41;5016910;28;45269;-76
2021/12/02 02:06:40;;;;;;;;;8.75;7.75;;;;;8.55;100.00;100169.25;5017213;28;45391;-80
2021/12/02 02:09:08;;;;;;;;;8.00;8.00;;;;;8.57;100.00;100166.72;5016397;28;45618;-79
2021/12/02 02:11:34;;;;;;;;;6.50;4.75;;;;;8.49;100.00;100164.72;4998589;28;46798;-79
2021/12/02 02:14:00;;;;;;;;;6.00;5.00;;;;;8.55;100.00;100181.25;5016225;28;45343;-82
2021/12/02 02:16:27;;;;;;;;;7.00;4.00;;;;;8.57;100.00;100177.03;5016673;28;45220;-78
2021/12/02 02:18:54;;;;;;;;;7.75;6.50;;;;;8.58;100.00;100179.72;5017868;28;45391;-77
2021/12/02 02:21:23;;;;;;;;;5.00;4.50;;;;;8.59;100.00;100186.59;5017678;28;45638;-80
2021/12/02 02:23:52;;;;;;;;;6.75;4.00;;;;;8.58;100.00;100183.97;5016976;28;45426;-78
2021/12/02 02:26:24;;;;;;;;;3.75;3.50;;;;;8.50;100.00;100175.91;5020902;28;45337;-81
2021/12/02 02:28:50;;;;;;;;;5.00;4.25;;;;;8.49;100.00;100176.72;5019927;28;45337;-80
2021/12/02 02:31:17;;;;;;;;;4.50;4.50;;;;;8.51;100.00;100182.81;5020190;28;45812;-76
2021/12/02 02:33:49;;;;;;;;;5.25;4.75;;;;;8.57;100.00;100198.59;5019933;28;45416;-78
2021/12/02 02:36:16;;;;;;;;;5.25;4.50;;;;;8.50;100.00;100188.78;5020731;28;45363;-81
2021/12/02 02:38:43;;;;;;;;;4.50;4.00;;;;;8.48;100.00;100187.84;5004048;28;45326;-78
2021/12/02 02:41:10;;;;;;;;;3.75;3.00;;;;;8.60;100.00;100203.84;5022758;28;45253;-77
2021/12/02 02:43:36;;;;;;;;;2.75;2.00;;;;;8.63;100.00;100208.28;5023117;28;45539;-77
2021/12/02 02:46:02;;;;;;;;;6.00;4.75;;;;;8.54;100.00;100194.97;5021861;28;45304;-78
2021/12/02 02:48:30;;;;;;;;;3.75;3.00;;;;;8.61;100.00;100197.88;5020444;28;45304;-79
2021/12/02 02:50:56;;;;;;;;;1.00;1.00;;;;;8.65;100.00;100210.09;5019586;28;46090;-79
2021/12/02 02:53:24;;;;;;;;;3.00;2.00;;;;;8.69;100.00;100215.41;5019001;28;45310;-81
2021/12/02 02:58:45;;;;;;;;;2.75;1.00;;;;;8.74;100.00;100217.38;5019678;28;45276;-79
2021/12/02 03:07:21;;;;;;;;;2.00;2.00;;;;;8.75;100.00;100215.66;5019216;28;45450;-79
2021/12/02 03:12:16;;;;;;;;;1.00;1.00;;;;;8.75;100.00;100231.13;5018935;28;45250;-78
2021/12/02 03:17:10;;;;;;;;;3.00;1.75;;;;;8.60;100.00;100231.38;5018584;28;45241;-78
2021/12/02 03:19:40;;;;;;;;;1.50;1.00;;;;;8.62;100.00;100240.06;5019017;28;45181;-79
2021/12/02 03:22:06;;;;;;;;;1.75;1.00;;;;;8.60;100.00;100254.59;5018488;28;46225;-78
2021/12/02 03:24:32;;;;;;;;;3.00;1.75;;;;;8.58;100.00;100256.22;5018758;28;45253;-78
2021/12/02 03:26:58;;;;;;;;;2.00;0.25;;;;;8.55;100.00;100256.97;5018582;28;45284;-79
2021/12/02 03:29:23;;;;;;;;;1.00;1.00;;;;;8.52;100.00;100255.16;5001497;28;45535;-78
2021/12/02 03:31:49;;;;;;;;;2.00;1.00;;;;;8.53;100.00;100243.13;5018229;28;45378;-76
2021/12/02 03:34:15;;;;;;;;;1.00;1.00;;;;;8.60;100.00;100249.44;5019020;28;45229;-77
2021/12/02 03:36:41;;;;;;;;;1.00;1.00;;;;;8.48;100.00;100242.91;5018391;28;45503;-78
2021/12/02 03:39:10;;;;;;;;;2.00;1.00;;;;;8.49;100.00;100264.44;5019321;28;45331;-83
2021/12/02 03:41:37;;;;;;;;;1.25;1.00;;;;;8.30;100.00;100240.38;5019130;28;46326;-79
2021/12/02 03:44:03;;;;;;;;;0.75;0.50;;;;;8.33;100.00;100263.72;5018281;28;45451;-81
2021/12/02 03:46:29;;;;;;;;;1.25;0.00;;;;;8.27;100.00;100278.91;5018713;28;45368;-79
2021/12/02 03:48:56;;;;;;;;;1.50;0.50;;;;;8.23;100.00;100273.53;5019049;28;45224;-79
2021/12/02 03:51:22;;;;;;;;;2.00;0.25;;;;;8.22;100.00;100290.72;5018868;28;46600;-78
2021/12/02 03:53:48;;;;;;;;;0.50;0.50;;;;;8.17;100.00;100271.56;5000913;28;45887;-80
2021/12/02 03:56:14;;;;;;;;;2.00;0.75;;;;;8.20;100.00;100279.44;5018824;28;45339;-83
2021/12/02 03:58:43;;;;;;;;;1.00;0.50;;;;;8.15;100.00;100281.81;5018859;28;45463;-77
2021/12/02 04:01:10;;;;;;;;;1.25;1.00;;;;;8.11;100.00;100276.44;5017850;28;46213;-76
2021/12/02 04:03:36;;;;;;;;;1.25;1.25;;;;;8.08;100.00;100279.78;5018203;28;45186;-77
2021/12/02 04:06:02;;;;;;;;;3.50;1.00;;;;;8.05;100.00;100287.38;5000033;28;45394;-78
2021/12/02 04:08:40;;;;;;;;;1.50;1.00;;;;;7.97;100.00;100270.66;5018805;28;45434;-78
2021/12/02 04:16:23;;;;;;;;;1.00;1.00;;;;;8.00;100.00;100291.41;5020895;28;45273;-78
2021/12/02 04:18:49;;;;;;;;;0.00;0.00;;;;;7.79;100.00;100270.69;5019666;28;45453;-79
2021/12/02 04:21:15;;;;;;;;;0.00;0.00;;;;;7.76;100.00;100281.72;5019171;28;45838;-84
2021/12/02 04:23:41;;;;;;;;;2.00;1.00;;;;;7.83;100.00;100296.66;5002843;28;45309;-88
2021/12/02 04:26:07;;;;;;;;;0.75;0.75;;;;;7.77;100.00;100280.03;5024377;28;45213;-88
2021/12/02 04:28:32;;;;;;;;;1.25;0.00;;;;;7.82;100.00;100301.75;5024147;28;45257;-89
2021/12/02 04:30:58;;;;;;;;;1.00;1.00;;;;;7.81;100.00;100306.00;5020207;28;45340;-89
2021/12/02 04:33:24;;;;;;;;;0.50;0.00;;;;;7.78;100.00;100303.28;5024962;28;44787;-88
2021/12/02 04:35:52;;;;;;;;;2.50;1.75;;;;;7.73;100.00;100302.19;5027007;28;45304;-87
2021/12/02 04:38:19;;;;;;;;;2.00;0.50;;;;;7.65;100.00;100304.41;5027225;28;45905;-88
2021/12/02 04:40:45;;;;;;;;;2.00;1.00;;;;;7.68;100.00;100316.53;5027868;28;45363;-90
2021/12/02 04:43:11;;;;;;;;;2.75;2.00;;;;;7.62;100.00;100324.84;5025232;28;45325;-92
2021/12/02 04:45:36;;;;;;;;;0.50;0.50;;;;;7.59;100.00;100335.03;5026896;28;45159;-91
2021/12/02 04:48:02;;;;;;;;;1.50;1.00;;;;;7.38;100.00;100324.53;5025317;28;45226;-83
2021/12/02 04:50:28;;;;;;;;;1.00;1.00;;;;;7.42;100.00;100329.91;5020819;28;46489;-79
2021/12/02 04:52:53;;;;;;;;;2.75;1.00;;;;;7.36;100.00;100337.34;5018137;28;45245;-79
2021/12/02 04:55:20;;;;;;;;;3.75;1.25;;;;;7.29;100.00;100322.38;5018027;28;45387;-78
2021/12/02 04:57:47;;;;;;;;;8.00;2.50;;;;;7.24;100.00;100313.56;5019596;28;45547;-77
2021/12/02 05:00:13;;;;;;;;;1.25;1.00;;;;;7.35;100.00;100334.69;5016280;28;45511;-78
2021/12/02 05:02:40;;;;;;;;;5.00;2.00;;;;;7.41;100.00;100351.31;5017976;28;45375;-79
2021/12/02 05:05:07;;;;;;;;;2.25;0.50;;;;;7.43;100.00;100359.16;5017439;28;45489;-79
2021/12/02 05:07:33;;;;;;;;;1.25;1.25;;;;;7.43;100.00;100349.72;4999698;28;45261;-79
2021/12/02 05:09:59;;;;;;;;;2.00;2.00;;;;;7.39;100.00;100358.13;4998874;28;45382;-78
2021/12/02 05:12:25;;;;;;;;;4.50;2.75;;;;;7.37;100.00;100359.72;5017157;28;45252;-78
2021/12/02 05:14:52;;;;;;;;;0.75;0.75;;;;;7.32;100.00;100370.59;5016781;28;45354;-78
2021/12/02 05:17:17;;;;;;;;;1.25;1.25;;;;;7.26;100.00;100364.31;4999924;28;45421;-78
2021/12/02 05:19:43;;;;;;;;;3.00;1.75;;;;;7.19;100.00;100359.66;4999102;28;45353;-80
2021/12/02 05:22:09;;;;;;;;;1.00;1.00;;;;;7.16;100.00;100359.50;5016709;28;45335;-78
2021/12/02 05:24:35;;;;;;;;;2.00;0.50;;;;;7.12;100.00;100362.75;5018482;28;45443;-78
2021/12/02 05:27:01;;;;;;;;;2.00;2.00;;;;;7.10;100.00;100365.22;5017423;28;45527;-78
2021/12/02 05:29:26;;;;;;;;;2.00;1.00;;;;;7.10;100.00;100372.06;5016770;28;45416;-78
2021/12/02 05:31:52;;;;;;;;;7.00;4.00;;;;;7.07;100.00;100371.91;5017325;28;45414;-80
2021/12/02 05:34:18;;;;;;;;;5.00;5.00;;;;;6.99;100.00;100373.19;5018335;28;45216;-79
2021/12/02 05:36:43;;;;;;;;;7.00;5.75;;;;;6.96;100.00;100382.53;5018878;28;45560;-80
2021/12/02 05:39:09;;;;;;;;;5.25;4.25;;;;;6.85;100.00;100375.06;5016888;28;46112;-86
2021/12/02 05:41:35;;;;;;;;;5.50;4.00;;;;;6.85;100.00;100386.22;5017601;28;45271;-79
2021/12/02 05:44:00;;;;;;;;;13.00;10.00;;;;;6.82;100.00;100374.09;5016536;28;45205;-80
2021/12/02 05:46:27;;;;;;;;;7.75;6.50;;;;;6.84;100.00;100365.56;5016981;28;45209;-81
2021/12/02 05:48:53;;;;;;;;;8.25;4.50;;;;;6.86;100.00;100374.25;5016421;28;46384;-78
2021/12/02 05:51:18;;;;;;;;;11.75;11.00;;;;;6.89;100.00;100377.88;4998418;28;45800;-77
2021/12/02 05:53:44;;;;;;;;;10.25;8.00;;;;;6.79;100.00;100373.91;5017023;28;45450;-79
2021/12/02 05:56:10;;;;;;;;;6.00;6.00;;;;;6.80;100.00;100387.69;5016868;28;45490;-78
2021/12/02 05:58:36;;;;;;;;;17.25;11.00;;;;;6.79;100.00;100388.50;5016770;28;45380;-77
2021/12/02 06:01:01;;;;;;;;;15.25;14.25;;;;;6.73;100.00;100381.31;5017862;28;45336;-81
2021/12/02 06:03:27;;;;;;;;;13.00;11.00;;;;;6.74;100.00;100398.53;5020338;28;45249;-79
2021/12/02 06:05:53;;;;;;;;;13.25;9.00;;;;;6.68;100.00;100402.47;5018842;28;45166;-80
2021/12/02 06:08:18;;;;;;;;;6.50;6.25;;;;;6.61;100.00;100398.66;5017551;28;45341;-81
2021/12/02 06:10:44;;;;;;;;;11.75;8.00;;;;;6.61;100.00;100403.81;5017696;28;45253;-76
2021/12/02 06:13:10;;;;;;;;;15.50;14.00;;;;;6.56;100.00;100401.00;5016202;28;45252;-77
2021/12/02 06:15:36;;;;;;;;;30.50;25.25;;;;;6.47;100.00;100390.22;5016360;28;45489;-78
2021/12/02 06:18:02;;;;;;;;;27.75;23.75;;;;;6.37;100.00;100372.53;5015798;28;45594;-76
2021/12/02 06:20:28;;;;;;;;;19.25;18.75;;;;;6.38;100.00;100374.25;5015861;28;45909;-76
2021/12/02 06:22:54;;;;;;;;;20.25;14.25;;;;;6.56;100.00;100403.56;5015698;28;45471;-77
2021/12/02 06:27:48;;;;;;;;;12.75;8.50;;;;;6.54;100.00;100389.72;5015747;28;45435;-78
2021/12/02 06:30:16;;;;;;;;;10.00;7.75;;;;;6.60;100.00;100384.91;5015809;28;45411;-78
2021/12/02 06:32:41;;;;;;;;;7.00;7.00;;;;;6.58;100.00;100377.91;5015972;28;45346;-79
2021/12/02 06:35:08;;;;;;;;;12.75;9.50;;;;;6.58;100.00;100395.94;5016082;28;45556;-79
2021/12/02 06:37:34;;;;;;;;;12.25;10.00;;;;;6.56;100.00;100405.25;5018653;28;45380;-82
2021/12/02 06:40:00;;;;;;;;;15.00;14.50;;;;;6.54;100.00;100406.84;5018563;28;45483;-78
2021/12/02 06:42:25;;;;;;;;;19.25;14.75;;;;;6.43;100.00;100404.56;5019113;28;45391;-78
2021/12/02 06:44:52;;;;;;;;;15.25;13.00;;;;;6.31;100.00;100389.38;5017082;28;45347;-89
2021/12/02 06:47:20;;;;;;;;;13.50;9.50;;;;;6.37;100.00;100409.38;5016739;28;45470;-80
2021/12/02 06:49:46;;;;;;;;;13.25;8.50;;;;;6.39;100.00;100428.34;5018493;28;46095;-80
2021/12/02 06:52:15;;;;;;;;;6.50;5.25;;;;;6.32;100.00;100428.78;4997793;28;45599;-77
2021/12/02 06:54:40;;;;;;;;;5.25;3.00;;;;;6.33;100.00;100443.44;5012365;28;45590;-78
2021/12/02 06:57:06;;;;;;;;;3.00;3.00;;;;;6.37;100.00;100440.25;5014704;28;45970;-77
2021/12/02 06:59:32;;;;;;;;;3.00;3.00;;;;;6.41;100.00;100457.63;5004645;28;45898;-78
2021/12/02 07:01:58;;;;;;;;;4.75;4.50;;;;;6.45;100.00;100463.81;5014450;28;45320;-78
2021/12/02 07:04:24;;;;;;;;;4.00;3.75;;;;;6.42;100.00;100464.53;5014649;28;45613;-80
2021/12/02 07:06:50;;;;;;;;;2.00;2.00;;;;;6.39;100.00;100456.66;5009273;28;45430;-78
2021/12/02 07:09:15;;;;;;;;;7.75;6.25;;;;;6.37;100.00;100470.22;5015374;28;45448;-77
2021/12/02 07:11:42;;;;;;;;;2.50;2.50;;;;;6.24;100.00;100450.63;5017932;28;45169;-75
2021/12/02 07:14:15;;;;;;;;;2.75;1.50;;;;;6.27;100.00;100472.25;5022468;28;45712;-80
2021/12/02 07:16:41;;;;;;;;;7.25;3.00;;;;;6.27;100.00;100476.53;5020041;28;45225;-76
2021/12/02 07:19:08;;;;;;;;;4.50;2.50;;;;;6.28;100.00;100478.28;5018252;28;45885;-80
2021/12/02 07:21:38;;;;;;;;;3.50;3.50;;;;;6.09;100.00;100463.50;5020257;28;45511;-74
2021/12/02 07:24:05;;;;;;;;;3.00;3.00;;;;;6.24;100.00;100507.19;5019770;28;45289;-74
2021/12/02 07:26:35;;;;;;;;;2.75;2.75;;;;;6.22;100.00;100501.06;5018183;28;45301;-76
2021/12/02 07:29:01;;;;;;;;;7.50;6.00;;;;;6.27;100.00;100507.38;5016877;28;46553;-76
2021/12/02 07:31:30;;;;;;;;;6.25;3.00;;;;;6.20;100.00;100493.28;5017145;28;45483;-78
2021/12/02 07:33:58;;;;;;;;;6.50;5.00;;;;;6.31;100.00;100497.34;5016224;28;45376;-75
2021/12/02 07:36:24;;;;;;;;;4.25;4.25;;;;;6.27;100.00;100486.81;5016720;28;45332;-78
2021/12/02 07:38:51;;;;;;;;;8.75;6.00;;;;;6.35;100.00;100496.72;5018050;28;45375;-76
2021/12/02 07:41:16;;;;;;;;;7.50;7.00;;;;;6.35;100.00;100483.88;5018285;28;45463;-75
2021/12/02 07:43:42;;;;;;;;;7.25;6.00;;;;;6.45;100.00;100487.84;5016358;28;45673;-78
2021/12/02 07:46:09;;;;;;;;;10.25;6.25;;;;;6.45;100.00;100484.38;5015569;28;45895;-75
2021/12/02 07:48:36;;;;;;;;;6.25;4.00;;;;;6.47;100.00;100477.66;5017926;28;45891;-81
2021/12/02 07:51:17;;;;;;;;;5.50;4.00;;;;;6.52;100.00;100490.75;5017797;28;45322;-77
2021/12/02 07:53:45;;;;;;;;;6.50;4.00;;;;;6.50;100.00;100501.84;5017029;28;45400;-74
2021/12/02 07:56:13;;;;;;;;;1.50;1.00;;;;;6.51;100.00;100502.72;5016570;28;45419;-81
2021/12/02 07:58:41;;;;;;;;;8.25;7.00;;;;;6.52;100.00;100501.06;4999785;28;45565;-75
2021/12/02 08:01:07;;;;;;;;;7.75;7.25;;;;;6.54;100.00;100504.56;5018181;28;45328;-75
2021/12/02 08:03:33;;;;;;;;;3.75;3.75;;;;;6.58;100.00;100503.94;5018115;28;45518;-74
2021/12/02 08:05:59;;;;;;;;;7.50;7.00;;;;;6.59;100.00;100521.16;5017412;28;45530;-77
2021/12/02 08:08:25;;;;;;;;;6.00;6.00;;;;;6.60;100.00;100522.94;5017668;28;45242;-78
2021/12/02 08:10:51;;;;;;;;;4.50;4.00;;;;;6.52;100.00;100511.34;5017338;28;45392;-77
2021/12/02 08:13:17;;;;;;;;;7.25;6.75;;;;;6.56;100.00;100515.84;5000146;28;45480;-82
2021/12/02 08:15:43;;;;;;;;;7.00;7.00;;;;;6.64;100.00;100522.31;5017608;28;46095;-80
2021/12/02 08:18:09;;;;;;;;;10.75;7.75;;;;;6.57;100.00;100520.19;5017353;28;45556;-82
2021/12/02 08:20:36;;;;;;;;;9.25;7.25;;;;;6.56;100.00;100533.84;5017617;28;45312;-80
2021/12/02 08:23:03;;;;;;;;;6.75;6.00;;;;;6.52;100.00;100526.78;5017342;28;45470;-83
2021/12/02 08:25:31;;;;;;;;;3.00;3.00;;;;;6.48;100.00;100536.88;5017111;28;46191;-75
2021/12/02 08:28:00;;;;;;;;;3.25;3.00;;;;;6.46;100.00;100543.63;5017029;28;45815;-76
2021/12/02 08:30:27;;;;;;;;;7.25;6.00;;;;;6.40;100.00;100539.81;5017307;28;45376;-75
2021/12/02 08:32:58;;;;;;;;;8.00;7.00;;;;;6.39;100.00;100546.66;4999040;28;45286;-74
2021/12/02 08:35:24;;;;;;;;;6.75;6.25;;;;;6.26;100.00;100541.59;5017019;28;45997;-75
2021/12/02 08:37:53;;;;;;;;;8.75;6.25;;;;;6.17;100.00;100552.22;5016678;28;46039;-74
2021/12/02 08:40:28;;;;;;;;;10.50;8.00;;;;;6.11;100.00;100564.72;5016902;28;45170;-74
2021/12/02 08:42:54;;;;;;;;;12.50;8.75;;;;;6.07;100.00;100553.38;5016832;28;45560;-74
2021/12/02 08:45:19;;;;;;;;;12.50;6.50;;;;;6.00;100.00;100553.78;5016487;28;46165;-74
2021/12/02 08:47:45;;;;;;;;;8.00;7.00;;;;;6.00;100.00;100566.63;4999136;28;45247;-74
2021/12/02 08:50:16;;;;;;;;;7.00;6.75;;;;;6.00;100.00;100571.78;5016493;28;45232;-73
2021/12/02 08:52:43;;;;;;;;;8.00;6.00;;;;;5.97;100.00;100558.75;5016887;28;45294;-74
2021/12/02 08:55:09;;;;;;;;;7.25;6.75;;;;;5.96;100.00;100554.41;5015915;28;45347;-74
2021/12/02 08:57:36;;;;;;;;;7.50;7.25;;;;;6.07;100.00;100570.47;5016470;28;45372;-76
2021/12/02 09:00:06;;;;;;;;;6.00;5.00;;;;;6.01;100.00;100569.31;5016299;28;45237;-75
2021/12/02 09:02:31;;;;;;;;;8.25;7.00;;;;;6.08;100.00;100562.88;5016685;28;45404;-74
2021/12/02 09:04:57;;;;;;;;;6.25;4.25;;;;;6.16;100.00;100587.31;5015681;28;46119;-74
2021/12/02 09:07:24;;;;;;;;;2.50;2.50;;;;;6.08;100.00;100596.28;5015690;28;45820;-74
2021/12/02 09:09:49;;;;;;;;;8.75;7.00;;;;;6.06;100.00;100591.81;5015793;28;45257;-74
2021/12/02 09:12:15;;;;;;;;;10.25;6.75;;;;;6.01;100.00;100586.41;5016763;28;45529;-75
2021/12/02 09:14:41;;;;;;;;;8.50;8.50;;;;;6.05;100.00;100598.66;5015706;28;46025;-75
2021/12/02 09:17:06;;;;;;;;;7.00;5.75;;;;;6.05;100.00;100603.78;5015928;28;45436;-78
2021/12/02 09:19:32;;;;;;;;;6.75;4.25;;;;;5.99;100.00;100582.84;5016143;28;45475;-76
2021/12/02 09:21:58;;;;;;;;;6.00;6.00;;;;;6.15;100.00;100588.13;5015952;28;45428;-75
2021/12/02 09:24:24;;;;;;;;;6.25;5.50;;;;;6.26;100.00;100586.19;5015873;28;45464;-75
2021/12/02 09:26:52;;;;;;;;;4.50;3.00;;;;;6.39;100.00;100604.88;5016993;28;45432;-75
2021/12/02 09:29:20;;;;;;;;;2.50;1.25;;;;;6.39;100.00;100602.31;5016854;28;45356;-77
2021/12/02 09:31:47;;;;;;;;;3.25;3.00;;;;;6.38;100.00;100601.44;5016603;28;45218;-76
2021/12/02 09:34:13;;;;;;;;;6.50;5.00;;;;;6.39;100.00;100590.34;5014779;28;46514;-73
2021/12/02 09:36:40;;;;;;;;;25.25;21.75;;;;;6.57;100.00;100603.41;5015716;28;45735;-75
2021/12/02 09:39:08;;;;;;;;;10.25;9.00;;;;;6.58;100.00;100602.59;5015752;28;45459;-74
2021/12/02 09:41:34;;;;;;;;;18.50;18.25;;;;;6.65;100.00;100614.09;4998345;28;45325;-74
2021/12/02 09:44:00;;;;;;;;;21.25;18.25;;;;;6.68;100.00;100621.13;5015466;28;45273;-80
2021/12/02 09:46:25;;;;;;;;;13.00;11.50;;;;;6.70;100.00;100620.41;5014659;28;45236;-76
2021/12/02 09:48:55;;;;;;;;;13.25;12.25;;;;;6.73;100.00;100618.03;5015647;28;45257;-75
2021/12/02 09:51:32;;;;;;;;;29.00;22.50;;;;;6.76;100.00;100627.59;5015811;28;45526;-76
2021/12/02 09:54:07;;;;;;;;;7.50;1.00;;;;;6.65;100.00;100607.28;5015712;28;45341;-75
2021/12/02 09:56:35;;;;;;;;;9.00;6.50;;;;;6.68;100.00;100606.56;5000573;28;45899;-80
2021/12/02 09:59:10;;;;;;;;;9.25;5.50;;;;;6.76;100.00;100632.75;5017668;28;45316;-83
2021/12/02 10:01:42;;;;;;;;;3.00;3.00;;;;;6.63;100.00;100626.88;5016342;28;45433;-79
2021/12/02 10:04:10;;;;;;;;;8.50;6.25;;;;;6.58;100.00;100632.56;5015081;28;45271;-80
2021/12/02 10:06:36;;;;;;;;;3.00;3.00;;;;;6.54;100.00;100626.34;5015190;28;45720;-75
2021/12/02 10:09:27;;;;;;;;;6.50;4.00;;;;;6.60;100.00;100633.53;5015127;28;45246;-74
2021/12/02 10:12:01;;;;;;;;;7.00;6.75;;;;;6.53;100.00;100628.84;5015407;28;45317;-78
2021/12/02 10:14:34;;;;;;;;;9.75;4.00;;;;;6.56;100.00;100627.34;5015213;28;46127;-74
2021/12/02 10:17:13;;;;;;;;;7.00;3.50;;;;;6.61;100.00;100640.47;5014983;28;45926;-74
2021/12/02 10:23:07;;;;;;;;;4.00;4.00;;;;;6.58;100.00;100641.19;5015725;28;45374;-73
2021/12/02 10:25:35;;;;;;;;;1.00;1.00;;;;;6.56;100.00;100632.50;5015274;28;45996;-73
2021/12/02 10:28:12;;;;;;;;;2.75;1.25;;;;;6.57;100.00;100636.84;5015376;28;45903;-79
2021/12/02 10:31:00;;;;;;;;;2.75;1.75;;;;;6.65;100.00;100644.97;5016334;28;45214;-80
2021/12/02 10:33:35;;;;;;;;;7.75;4.25;;;;;6.66;100.00;100646.75;5017811;28;45293;-82
2021/12/02 10:36:03;;;;;;;;;5.50;2.25;;;;;6.67;100.00;100645.94;5014779;28;46265;-81
2021/12/02 10:38:37;;;;;;;;;11.00;9.75;;;;;6.63;100.00;100641.44;5015946;28;45978;-82
2021/12/02 10:41:16;;;;;;;;;21.00;14.25;;;;;6.62;100.00;100637.09;4997445;28;45410;-84
2021/12/02 10:44:24;;;;;;;;;16.50;13.25;;;;;6.70;100.00;100637.50;5015639;28;45520;-76
2021/12/02 10:47:01;;;;;;;;;2.75;2.75;;;;;6.69;100.00;100646.94;4900804;28;46363;-77
2021/12/02 10:49:31;;;;;;;;;6.00;3.25;;;;;6.71;100.00;100631.56;4918532;28;45390;-75
2021/12/02 10:52:01;;;;;;;;;7.00;2.75;;;;;6.70;100.00;100627.22;4977729;28;45414;-75
2021/12/02 10:54:36;;;;;;;;;3.00;2.00;;;;;6.83;100.00;100624.56;5000630;28;45404;-76
2021/12/02 10:57:22;;;;;;;;;1.25;1.00;;;;;6.88;100.00;100610.28;5017759;28;46272;-75
2021/12/02 10:59:51;;;;;;;;;4.50;2.25;;;;;7.00;100.00;100622.94;5018418;28;45468;-75
2021/12/02 11:02:49;;;;;;;;;4.25;4.25;;;;;7.08;100.00;100619.09;5018727;28;45543;-74
2021/12/02 11:05:25;;;;;;;;;2.75;2.75;;;;;7.22;100.00;100619.00;5017848;28;45242;-75
2021/12/02 11:07:54;;;;;;;;;4.75;3.00;;;;;7.18;100.00;100609.34;5017865;28;45401;-74
2021/12/02 11:10:20;;;;;;;;;2.75;2.00;;;;;7.13;100.00;100619.34;5017969;28;46016;-75
2021/12/02 11:12:48;;;;;;;;;6.00;4.50;;;;;7.11;100.00;100606.41;5018771;28;45452;-75
2021/12/02 11:15:15;;;;;;;;;5.75;5.50;;;;;7.13;100.00;100620.25;5001054;28;45275;-76
2021/12/02 11:17:57;;;;;;;;;1.00;1.00;;;;;7.09;96.01;100620.00;5018508;28;46180;-76
2021/12/02 11:20:30;;;;;;;;;2.75;0.00;;;;;6.98;94.75;100609.09;5018759;28;45687;-75
2021/12/02 11:23:06;;;;;;;;;1.50;1.00;;;;;6.97;94.21;100621.09;5018140;28;45474;-76
2021/12/02 11:25:35;;;;;;;;;2.00;1.00;;;;;6.95;94.66;100614.97;5018463;28;45511;-75
2021/12/02 11:28:06;;;;;;;;;2.00;2.00;;;;;6.94;95.92;100615.75;5017648;28;45276;-75
2021/12/02 11:30:32;;;;;;;;;10.25;8.00;;;;;6.90;88.97;100613.84;5018026;28;45928;-75
2021/12/02 11:33:04;;;;;;;;;11.25;11.25;;;;;6.92;91.08;100603.63;5017891;28;45268;-76
2021/12/02 11:35:42;;;;;;;;;17.25;14.75;;;;;6.86;92.05;100609.31;5018367;28;45517;-75
2021/12/02 11:38:19;;;;;;;;;13.75;11.75;;;;;6.86;91.20;100603.28;5017784;28;45492;-76
2021/12/02 11:40:51;;;;;;;;;43.00;37.00;;;;;6.70;89.09;100599.81;5000669;28;45356;-75
2021/12/02 11:43:20;;;;;;;;;26.00;24.00;;;;;6.71;90.72;100606.75;5019023;28;45338;-74
2021/12/02 11:45:48;;;;;;;;;14.25;12.50;;;;;6.73;91.91;100599.09;5018309;28;45296;-77
2021/12/02 11:48:17;;;;;;;;;3.50;2.00;;;;;6.76;92.05;100615.59;5018063;28;45391;-73
2021/12/02 11:50:44;;;;;;;;;1.25;1.25;;;;;6.75;91.38;100594.94;5017673;28;45729;-73
2021/12/02 11:53:09;;;;;;;;;1.25;1.25;;;;;6.81;92.36;100590.13;5017577;28;45185;-75
2021/12/02 11:55:42;;;;;;;;;1.00;1.00;;;;;6.91;90.00;100594.13;5018014;28;45490;-74